Catacamas, Honduras
Current Conditions -  °F | °C
As of 5:00 PM on Wednesday 22 Oct 2014 (Local Time) from MHCA Reporting Station
Thunderstorm Thunderstorm  
Wind Chill: 27°   Ceiling: 3000
Heat Index: 29°   Visibility: 6mi
Dew Point: 22°   Wind: 6mph
Humidity: 74%   Direction: 20°NNE
Pressure: 29.8"   Gusts: NA
Location:  14.85°N, 85.89°W
Report Text: MHCA 222300Z 02005KT 9999 TS BKN030CB SCT070 27/22 Q1009
Loading
Personal Weather Stations






























Interactive Weather Map
Tropical Storm Tracking
New forecast layout! Learn more

10-Day Weather Forecast

Advertisements
Track Severe Weather on mobile